Latest Weather Observations for North Island

IDW60801

Issued at 3:43 am WST Thursday 28 October 2021 (issued every 10 minutes, with the page automatically refreshed every 10 minutes)

About weather observations | Map of weather stations | Latest weather observations for WA | Other Formats
Station Details ID: 008290 Name: NORTH ISLAND Lat: -28.30 Lon: 113.59 Height: 2.2 m
Data from the previous 72 hours. | See also: Recent months at North Island
Date/Time
WST
Temp
°C
App
Temp
°C
Dew
Point
°C
Rel
Hum
%
Delta-T
°C
Wind Press
QNH
hPa
Press
MSL
hPa
Rain since
9am
mm
Dir  Spd
km/h
Gust
km/h
Spd
kts
Gust
kts
28/03:30am 16.1 10.7 9.5 65 3.4 SSE 28 32 15 17 1016.4 1016.4 0.2
28/03:00am 15.7 11.5 11.1 74 2.5 SSE 24 30 13 16 1016.3 1016.3 0.2
28/02:30am 15.3 12.2 11.5 78 2.0 ESE 19 22 10 12 1016.4 1016.4 0.0
28/02:00am 16.0 10.2 10.7 71 2.8 SE 32 41 17 22 1016.4 1016.4 0.0
28/01:30am 16.6 11.6 9.5 63 3.7 S 26 33 14 18 1016.6 1016.6 0.0
28/01:00am 16.6 12.0 9.8 64 3.6 S 24 32 13 17 1016.7 1016.7 0.0
28/12:30am 16.5 11.7 8.7 60 4.0 S 24 30 13 16 1016.9 1016.9 0.0
28/12:00am 16.6 11.9 9.1 61 3.9 S 24 30 13 16 1017.1 1017.1 0.0
 
Date/Time
WST
Temp
°C
App
Temp
°C
Dew
Point
°C
Rel
Hum
%
Delta-T
°C
Wind Press
QNH
hPa
Press
MSL
hPa
Rain since
9am
mm
Dir  Spd
km/h
Gust
km/h
Spd
kts
Gust
kts
27/11:30pm 16.5 12.0 8.5 59 4.1 S 22 28 12 15 1017.4 1017.4 0.0
27/11:00pm 16.7 11.3 8.1 57 4.3 S 26 33 14 18 1017.6 1017.6 0.0
27/10:30pm 16.8 11.5 8.5 58 4.2 S 26 35 14 19 1017.6 1017.6 0.0
27/10:00pm 17.0 12.8 9.7 62 3.8 S 22 30 12 16 1017.9 1017.9 0.0
27/09:30pm 16.7 12.3 8.9 60 4.0 S 22 28 12 15 1017.8 1017.8 0.0
27/09:00pm 16.7 13.9 9.9 64 3.6 SW 15 22 8 12 1017.7 1017.7 0.0
27/08:30pm 16.8 11.8 8.2 57 4.4 S 24 30 13 16 1017.3 1017.3 0.0
27/08:00pm 17.0 11.9 9.2 60 4.0 S 26 33 14 18 1016.8 1016.8 0.0
27/07:30pm 16.9 12.2 9.3 61 3.9 S 24 32 13 17 1016.4 1016.4 0.0
27/07:00pm 16.8 12.1 9.2 61 3.9 S 24 32 13 17 1016.4 1016.4 0.0
27/06:30pm 17.0 12.0 7.9 55 4.6 SSW 24 30 13 16 1016.2 1016.2 0.0
27/06:00pm 17.7 12.2 7.7 52 5.1 SSW 26 33 14 18 1016.1 1016.1 0.0
27/05:30pm 18.0 12.8 8.8 55 4.8 SSW 26 33 14 18 1015.8 1015.8 0.0
27/05:00pm 17.6 11.9 8.2 54 4.8 SSW 28 35 15 19 1015.5 1015.5 0.0
27/04:30pm 19.4 14.1 8.4 49 5.7 SSW 26 33 14 18 1015.4 1015.4 0.0
27/04:00pm 19.0 13.3 8.4 50 5.5 SSW 28 37 15 20 1015.3 1015.3 0.0
27/03:30pm 20.0 14.5 9.0 49 5.8 SSW 28 37 15 20 1015.2 1015.2 0.0
27/03:00pm 20.4 14.8 8.7 47 6.1 SW 28 39 15 21 1015.2 1015.2 0.0
27/02:30pm 20.2 14.2 8.8 48 6.0 SW 30 41 16 22 1015.1 1015.1 0.0
27/02:00pm 19.4 13.4 8.7 50 5.6 SSW 30 39 16 21 1015.0 1015.0 0.0
27/01:30pm 19.8 13.2 8.5 48 5.9 SW 33 43 18 23 1014.9 1014.9 0.0
27/01:00pm 20.3 13.9 9.2 49 5.9 SW 33 43 18 23 1014.8 1014.8 0.0
27/12:30pm 20.1 13.9 10.2 53 5.3 SW 33 43 18 23 1014.8 1014.8 0.0
27/12:00pm 20.1 13.3 9.1 49 5.8 SW 35 46 19 25 1014.9 1014.9 0.0
27/11:30am 19.5 11.7 11.3 59 4.5 SW 43 52 23 28 1014.9 1014.9 0.0
27/11:14am 20.1 13.1 11.3 57 4.8 SW 39 63 21 34 1014.6 1014.6 0.0
27/11:00am 20.5 13.1 10.0 51 5.6 SW 39 48 21 26 1014.6 1014.6 0.0
27/10:30am 19.0 11.6 9.8 55 4.9 SW 39 50 21 27 1014.5 1014.5 0.0
27/10:00am 19.3 11.5 9.8 54 5.1 SW 41 54 22 29 1014.3 1014.3 0.0
27/09:30am 19.8 12.2 10.5 55 5.0 SW 41 52 22 28 1014.0 1014.0 0.0
27/09:00am 17.7 9.5 11.7 68 3.3 SW 46 63 25 34 1013.7 1013.7 3.4
27/08:53am 18.8 11.3 12.1 65 3.7 SW 43 63 23 34 1013.6 1013.6 3.4
27/08:30am 17.9 9.5 11.0 64 3.7 SW 46 57 25 31 1013.5 1013.5 3.4
27/08:00am 17.8 10.4 12.5 71 2.9 WSW 43 54 23 29 1013.0 1013.0 3.4
27/07:30am 17.0 9.0 12.3 74 2.6 WSW 46 56 25 30 1012.7 1012.7 3.4
27/07:00am 16.4 8.8 13.5 83 1.6 SW 46 57 25 31 1012.2 1012.2 3.4
27/06:30am 16.8 9.9 12.9 78 2.2 WSW 41 54 22 29 1011.7 1011.7 3.2
27/06:00am 15.9 8.8 13.4 85 1.4 WSW 43 56 23 30 1011.4 1011.4 3.2
27/05:38am 15.7 9.5 12.8 83 1.6 W 37 59 20 32 1011.4 1011.4 3.0
27/05:30am 15.7 9.1 12.6 82 1.7 W 39 52 21 28 1011.2 1011.2 3.0
27/05:09am 16.2 10.2 13.3 83 1.6 W 37 57 20 31 1010.9 1010.9 3.0
27/05:00am 16.1 9.0 13.4 84 1.5 WSW 43 56 23 30 1010.9 1010.9 3.0
27/04:30am 15.2 7.2 13.6 90 0.9 W 48 72 26 39 1010.9 1010.9 2.8
27/04:27am 15.3 7.6 13.3 88 1.1 W 46 72 25 39 1011.0 1011.0 2.8
27/04:25am 15.3 7.8 12.8 85 1.4 W 44 72 24 39 1010.9 1010.9 2.4
27/04:00am 16.0 10.0 14.4 90 0.9 W 39 57 21 31 1010.7 1010.7 1.8
27/03:30am 16.2 9.3 12.7 80 1.9 W 41 56 22 30 1010.7 1010.7 1.0
27/03:00am 15.6 7.8 12.9 84 1.5 W 46 63 25 34 1010.6 1010.6 1.0
27/02:33am 15.6 8.5 12.2 80 1.9 W 41 59 22 32 1010.4 1010.4 0.8
27/02:30am 16.0 9.6 13.3 84 1.5 W 39 54 21 29 1010.5 1010.5 0.6
27/02:05am 17.1 8.9 11.8 71 2.9 WNW 46 72 25 39 1010.7 1010.7 0.0
27/02:00am 17.1 9.4 11.6 70 3.0 WNW 43 54 23 29 1010.6 1010.6 0.0
27/01:36am 16.9 8.9 10.5 66 3.4 WNW 43 61 23 33 1011.0 1011.0 0.0
27/01:30am 17.9 10.2 10.0 60 4.2 WNW 41 54 22 29 1010.9 1010.9 0.0
27/01:00am 17.6 10.9 9.5 59 4.2 WNW 35 46 19 25 1011.2 1011.2 0.0
27/12:30am 17.6 10.2 10.0 61 4.0 WNW 39 46 21 25 1011.7 1011.7 0.0
27/12:00am 17.4 10.4 9.8 61 4.0 W 37 46 20 25 1011.9 1011.9 0.0
 
Date/Time
WST
Temp
°C
App
Temp
°C
Dew
Point
°C
Rel
Hum
%
Delta-T
°C
Wind Press
QNH
hPa
Press
MSL
hPa
Rain since
9am
mm
Dir  Spd
km/h
Gust
km/h
Spd
kts
Gust
kts
26/11:31pm 16.5 9.9 10.1 66 3.4 WNW 35 54 19 29 1012.0 1012.0 0.0
26/11:30pm 16.3 9.2 9.7 65 3.4 W 37 54 20 29 1012.0 1012.0 0.0
26/11:22pm 17.2 11.1 10.3 64 3.7 WNW 33 52 18 28 1012.1 1012.1 0.0
26/11:00pm 17.2 10.5 8.1 55 4.6 WNW 33 46 18 25 1012.3 1012.3 0.0
26/10:30pm 17.3 12.0 10.0 62 3.9 WNW 28 37 15 20 1012.5 1012.5 0.0
26/10:00pm 16.9 10.6 8.8 59 4.2 W 32 43 17 23 1012.7 1012.7 0.0
26/09:30pm 17.1 11.3 9.3 60 4.1 W 30 41 16 22 1013.0 1013.0 0.0
26/09:00pm 17.0 11.5 9.2 60 4.0 W 28 37 15 20 1013.1 1013.1 0.0
26/08:30pm 17.0 10.7 8.9 59 4.2 W 32 39 17 21 1013.2 1013.2 0.0
26/08:00pm 17.1 10.5 8.5 57 4.4 W 33 44 18 24 1013.1 1013.1 0.0
26/07:30pm 16.8 10.9 9.2 61 3.9 WNW 30 37 16 20 1013.3 1013.3 0.0
26/07:00pm 16.6 12.0 9.5 63 3.7 W 24 35 13 19 1013.5 1013.5 0.0
26/06:30pm 16.0 12.4 9.9 67 3.2 W 19 24 10 13 1013.6 1013.6 0.0
26/06:19pm 15.9 11.0 10.0 68 3.1 WSW 26 35 14 19 1013.8 1013.8 0.0
26/06:00pm 16.4 10.3 10.5 68 3.1 W 33 50 18 27 1013.7 1013.7 0.0
26/05:30pm 17.9 11.2 7.3 50 5.3 W 32 41 17 22 1013.6 1013.6 0.0
26/05:00pm 17.5 9.9 8.9 57 4.4 WSW 39 48 21 26 1013.4 1013.4 0.0
26/04:47pm 18.0 12.1 10.6 62 4.0 W 32 50 17 27 1013.3 1013.3 0.0
26/04:30pm 18.3 12.4 7.4 49 5.5 W 28 41 15 22 1013.3 1013.3 0.0
26/04:00pm 19.9 16.1 9.8 52 5.4 W 20 28 11 15 1013.4 1013.4 0.0
26/03:30pm 18.6 13.6 9.7 56 4.7 W 26 35 14 19 1013.5 1013.5 0.0
26/03:00pm 19.4 15.7 9.3 52 5.3 WSW 19 26 10 14 1013.6 1013.6 0.0
26/02:30pm 19.2 13.5 11.0 59 4.5 SW 32 46 17 25 1013.7 1013.7 0.0
26/02:15pm 19.0 13.3 8.4 50 5.5 W 28 46 15 25 1013.9 1013.9 0.0
26/02:00pm 20.0 15.0 8.0 46 6.2 W 24 30 13 16 1013.8 1013.8 0.0
26/01:30pm 20.0 15.4 9.6 51 5.5 WSW 24 32 13 17 1013.9 1013.9 0.0
26/01:00pm 19.3 15.0 7.7 47 5.9 WSW 20 28 11 15 1014.0 1014.0 0.0
26/12:30pm 19.6 15.3 7.7 46 6.1 WSW 20 30 11 16 1014.2 1014.2 0.0
26/12:00pm 19.2 14.5 7.6 47 5.9 WSW 22 32 12 17 1014.5 1014.5 0.0
26/11:30am 20.1 16.0 8.8 48 5.9 SW 20 28 11 15 1014.6 1014.6 0.0
26/11:00am 19.5 16.0 11.0 58 4.6 SSW 20 28 11 15 1014.8 1014.8 0.0
26/10:30am 17.8 12.0 9.4 58 4.4 SSW 30 35 16 19 1015.0 1015.0 0.0
26/10:00am 18.3 14.0 9.4 56 4.7 SW 22 32 12 17 1015.1 1015.1 0.0
26/09:30am 17.7 12.8 8.6 55 4.7 SW 24 32 13 17 1015.1 1015.1 0.0
26/09:00am 16.8 11.8 8.2 57 4.4 SW 24 35 13 19 1015.0 1015.0 0.8
26/08:30am 16.5 12.3 9.7 64 3.6 SSW 22 32 12 17 1015.1 1015.1 0.8
26/08:00am 15.7 11.2 10.2 70 2.9 SSW 24 33 13 18 1015.1 1015.1 0.8
26/07:30am 15.3 10.4 9.9 70 2.8 SW 26 35 14 19 1014.8 1014.8 0.8
26/07:00am 13.4 6.4 8.3 71 2.5 SSW 35 44 19 24 1014.4 1014.4 0.8
26/06:51am 13.4 7.0 8.7 73 2.4 SSW 32 44 17 24 1014.2 1014.2 0.8
26/06:30am 15.3 11.3 8.1 62 3.6 SW 19 26 10 14 1014.0 1014.0 0.0
26/06:00am 15.0 10.9 7.8 62 3.6 SSW 19 24 10 13 1013.8 1013.8 0.0
26/05:30am 14.9 9.5 8.2 64 3.4 SW 26 35 14 19 1013.4 1013.4 0.0
26/05:00am 14.7 10.0 7.7 63 3.5 SSW 22 30 12 16 1013.2 1013.2 0.0
26/04:30am 14.6 11.9 9.0 69 2.8 S 13 20 7 11 1013.2 1013.2 0.0
26/04:00am 13.7 10.6 9.0 73 2.4 SSE 15 19 8 10 1013.3 1013.3 0.0
26/03:30am 13.5 9.6 9.4 76 2.1 SSW 20 28 11 15 1013.4 1013.4 0.0
26/03:00am 14.3 9.5 10.3 77 2.1 SSW 26 35 14 19 1013.4 1013.4 0.0
26/02:30am 14.8 8.3 8.3 65 3.3 SSW 32 48 17 26 1013.2 1013.2 0.0
26/02:27am 14.6 8.8 8.1 65 3.2 SSW 28 48 15 26 1013.1 1013.1 0.0
26/02:00am 14.9 10.2 6.0 55 4.3 SSW 20 24 11 13 1013.2 1013.2 0.0
26/01:30am 15.2 9.5 6.7 57 4.1 S 26 32 14 17 1013.5 1013.5 0.0
26/01:00am 15.0 10.5 6.0 55 4.3 SW 19 24 10 13 1013.8 1013.8 0.0
26/12:30am 15.2 9.8 4.3 48 5.1 SW 22 30 12 16 1014.0 1014.0 0.0
26/12:00am 15.4 10.0 6.2 54 4.4 SW 24 30 13 16 1014.0 1014.0 0.0
 
Date/Time
WST
Temp
°C
App
Temp
°C
Dew
Point
°C
Rel
Hum
%
Delta-T
°C
Wind Press
QNH
hPa
Press
MSL
hPa
Rain since
9am
mm
Dir  Spd
km/h
Gust
km/h
Spd
kts
Gust
kts
25/11:30pm 15.8 10.0 6.3 53 4.6 SSW 26 33 14 18 1014.3 1014.3 0.0
25/11:00pm 15.7 10.5 7.2 57 4.2 SSW 24 32 13 17 1014.4 1014.4 0.0
25/10:30pm 15.8 9.9 7.3 57 4.2 S 28 33 15 18 1014.5 1014.5 0.0
25/10:00pm 15.9 10.5 7.9 59 4.0 SSW 26 30 14 16 1014.7 1014.7 0.0
25/09:30pm 15.8 10.9 8.3 61 3.8 S 24 33 13 18 1015.0 1015.0 0.0
25/09:00pm 16.1 10.7 7.8 58 4.2 S 26 32 14 17 1014.8 1014.8 0.0
25/08:30pm 15.8 10.1 8.3 61 3.8 S 28 33 15 18 1014.7 1014.7 0.0
25/08:00pm 15.8 9.7 8.1 60 3.9 SSW 30 37 16 20 1014.3 1014.3 0.0
25/07:30pm 16.0 10.3 9.7 66 3.3 S 30 39 16 21 1014.3 1014.3 0.0
25/07:00pm 15.8 9.6 9.2 65 3.4 SSW 32 39 17 21 1014.1 1014.1 0.0
25/06:30pm 16.2 10.0 9.4 64 3.5 S 32 39 17 21 1014.0 1014.0 0.0
25/06:00pm 16.5 10.4 9.7 64 3.6 SSW 32 37 17 20 1013.8 1013.8 0.0
25/05:30pm 16.7 10.3 9.4 62 3.8 SSW 33 43 18 23 1013.6 1013.6 0.0
25/05:00pm 18.0 11.4 11.3 65 3.6 SSW 37 48 20 26 1013.2 1013.2 0.0
25/04:30pm 18.6 12.5 9.7 56 4.7 SSW 32 41 17 22 1013.2 1013.2 0.0
25/04:00pm 18.2 11.7 10.3 60 4.2 SSW 35 43 19 23 1013.0 1013.0 0.0
25/03:30pm 19.6 13.6 10.9 57 4.7 SSW 33 43 18 23 1012.9 1012.9 0.0
25/03:00pm 20.2 13.9 10.9 55 5.1 SW 35 46 19 25 1012.8 1012.8 0.0
25/02:30pm 20.9 14.3 10.1 50 5.8 SW 35 44 19 24 1012.6 1012.6 0.0
25/02:00pm 20.3 14.0 9.8 51 5.6 SW 33 46 18 25 1012.6 1012.6 0.0
25/01:30pm 20.7 13.6 10.8 53 5.4 SW 39 50 21 27 1012.7 1012.7 0.0
25/01:00pm 22.0 15.5 10.5 48 6.3 WSW 35 46 19 25 1012.7 1012.7 0.0
25/12:30pm 21.4 14.5 9.0 45 6.6 WSW 35 48 19 26 1012.8 1012.8 0.0
25/12:00pm 21.7 14.9 10.5 49 6.1 SW 37 46 20 25 1012.9 1012.9 0.0
25/11:30am 21.3 14.2 10.8 51 5.8 WSW 39 50 21 27 1013.0 1013.0 0.0
25/11:00am 21.2 13.6 10.4 50 5.9 WSW 41 52 22 28 1013.0 1013.0 0.0
25/10:30am 19.5 13.3 12.8 65 3.8 SW 37 48 20 26 1013.1 1013.1 0.0
25/10:00am 18.9 13.0 13.7 72 3.0 SW 37 50 20 27 1013.2 1013.2 0.0
25/09:30am 19.1 13.1 14.4 74 2.7 SSW 39 46 21 25 1013.0 1013.0 0.0
25/09:00am 17.0 10.2 14.3 84 1.5 SW 43 56 23 30 1012.9 1012.9 0.8
25/08:30am 17.0 10.3 14.6 86 1.4 SW 43 54 23 29 1012.5 1012.5 0.8
25/08:00am 17.2 12.3 15.4 89 1.1 SSW 35 43 19 23 1012.3 1012.3 0.6
25/07:43am 17.0 13.4 15.2 89 1.0 SW 28 46 15 25 1012.3 1012.3 0.6
25/07:30am 17.3 13.5 14.8 85 1.4 SW 28 39 15 21 1012.2 1012.2 0.2
25/07:00am 18.5 14.4 15.0 80 2.0 SW 30 37 16 20 1011.7 1011.7 0.0
25/06:30am 17.6 12.3 14.3 81 1.9 WSW 35 43 19 23 1011.4 1011.4 0.0
25/06:23am 18.9 15.8 14.6 76 2.5 WSW 24 43 13 23 1011.3 1011.3 0.0
25/06:00am 18.4 16.2 13.3 72 2.9 WSW 17 20 9 11 1011.1 1011.1 0.0
25/05:30am 17.6 15.6 12.7 73 2.7 SW 15 20 8 11 1011.1 1011.1 0.0
25/05:00am 17.9 16.3 12.8 72 2.9 SW 13 19 7 10 1011.1 1011.1 0.0
25/04:30am 17.8 15.4 12.5 71 2.9 SW 17 19 9 10 1011.2 1011.2 0.0
25/04:00am 18.0 15.3 12.9 72 2.9 SW 19 22 10 12 1011.4 1011.4 0.0

Other formats

Comma delimited format used in spreadsheet applications
http://www.bom.gov.au/fwo/IDW60801/IDW60801.94405.axf

JavaScript Object Notation format (JSON) in row-major order
http://www.bom.gov.au/fwo/IDW60801/IDW60801.94405.json

Data quality

Most of these data are generated automatically and are frequently updated. Quality checks on data are not normally performed. It is possible for incorrect values to appear. Refer to information at About Latest Weather Observations and please check the disclaimer before using these data.